Time;durP1;ratioP1;P1;durP2;ratioP2;P2;SDS_P1;SDS_P2;PMS_P1;PMS_P2;Temp;Humidity;BMP_temperature;BMP_pressure;BME280_temperature;BME280_humidity;BME280_pressure;Samples;Min_cycle;Max_cycle;Signal;HPM_P1;HPM_P2
2023/01/23 00:00:35;;;;;;;17.93;11.67;;;0.70;99.90;;;;;;5031040;28;20186;-89
2023/01/23 00:03:01;;;;;;;17.07;11.87;;;0.70;99.90;;;;;;5030715;28;20218;-89
2023/01/23 00:05:27;;;;;;;15.23;11.03;;;0.70;99.90;;;;;;5031196;28;20236;-89
2023/01/23 00:07:53;;;;;;;17.77;11.87;;;0.70;99.90;;;;;;5042398;22;20235;-39
2023/01/23 00:10:19;;;;;;;17.83;12.20;;;0.70;99.90;;;;;;4988952;28;20183;-40
2023/01/23 00:12:47;;;;;;;17.50;11.83;;;0.70;99.90;;;;;;4989507;28;20199;-37
2023/01/23 00:15:14;;;;;;;15.77;11.33;;;0.70;99.90;;;;;;4990090;28;20256;-37
2023/01/23 00:17:41;;;;;;;18.03;12.27;;;0.70;99.90;;;;;;4986924;28;20207;-39
2023/01/23 00:20:09;;;;;;;16.67;11.53;;;0.70;99.90;;;;;;5018251;23;20208;-87
2023/01/23 00:22:35;;;;;;;18.80;11.50;;;0.70;99.90;;;;;;5055924;28;20201;-87
2023/01/23 00:25:01;;;;;;;17.27;12.20;;;0.70;99.90;;;;;;5057820;28;20259;-87
2023/01/23 00:27:26;;;;;;;16.27;11.53;;;0.70;99.90;;;;;;5054385;28;20232;-87
2023/01/23 00:29:53;;;;;;;15.17;10.57;;;0.70;99.90;;;;;;5037671;28;20169;-87
2023/01/23 00:32:19;;;;;;;16.13;11.37;;;0.70;99.90;;;;;;5021291;28;20182;-87
2023/01/23 00:34:45;;;;;;;17.57;11.17;;;0.70;99.90;;;;;;5037599;28;20181;-87
2023/01/23 00:37:15;;;;;;;16.33;11.83;;;0.70;99.90;;;;;;5037510;28;20347;-87
2023/01/23 00:39:42;;;;;;;14.93;10.90;;;0.70;99.90;;;;;;5029248;28;20185;-87
2023/01/23 00:42:10;;;;;;;17.37;11.80;;;0.70;99.90;;;;;;5054400;28;20185;-87
2023/01/23 00:44:36;;;;;;;16.10;11.50;;;0.70;99.90;;;;;;5037484;28;20212;-87
2023/01/23 00:47:02;;;;;;;17.20;11.90;;;0.70;99.90;;;;;;5037589;28;20204;-87
2023/01/23 00:49:28;;;;;;;16.17;11.80;;;0.70;99.90;;;;;;5037487;28;20183;-87
2023/01/23 00:51:55;;;;;;;15.87;11.77;;;0.70;99.90;;;;;;5020967;28;20629;-87
2023/01/23 00:54:24;;;;;;;15.90;11.13;;;0.70;99.90;;;;;;5054518;28;20211;-87
2023/01/23 00:56:51;;;;;;;16.03;10.73;;;0.70;99.90;;;;;;5021352;28;20546;-86
2023/01/23 00:59:17;;;;;;;16.37;11.27;;;0.70;99.90;;;;;;5037461;28;20188;-86
2023/01/23 01:01:44;;;;;;;16.70;11.47;;;0.70;99.90;;;;;;5021263;28;20186;-86
2023/01/23 01:04:10;;;;;;;15.93;11.00;;;0.70;99.90;;;;;;5019612;28;20200;-87
2023/01/23 01:06:36;;;;;;;14.90;10.50;;;0.70;99.90;;;;;;5037410;28;20269;-87
2023/01/23 01:09:03;;;;;;;15.97;12.53;;;0.70;99.90;;;;;;5030946;28;20273;-86
2023/01/23 01:11:29;;;;;;;16.93;11.70;;;0.70;99.90;;;;;;5034318;28;20212;-88
2023/01/23 01:13:58;;;;;;;14.63;10.83;;;0.70;99.90;;;;;;5021962;28;20188;-87
2023/01/23 01:16:45;;;;;;;15.17;10.53;;;0.70;99.90;;;;;;5054077;28;20274;-86
2023/01/23 01:19:13;;;;;;;17.57;11.30;;;0.70;99.90;;;;;;5036882;28;20185;-86
2023/01/23 01:21:41;;;;;;;15.23;10.90;;;0.60;99.90;;;;;;5037283;28;20291;-87
2023/01/23 01:24:07;;;;;;;15.70;11.17;;;0.60;99.90;;;;;;5037196;28;20212;-87
2023/01/23 01:26:34;;;;;;;16.17;11.17;;;0.60;99.90;;;;;;5036827;28;20211;-87
2023/01/23 01:28:59;;;;;;;14.80;11.17;;;0.60;99.90;;;;;;5036937;28;20177;-86
2023/01/23 01:31:26;;;;;;;16.03;10.77;;;0.70;99.90;;;;;;5036920;28;20170;-86
2023/01/23 01:33:53;;;;;;;14.87;11.23;;;0.70;99.90;;;;;;5035971;28;20173;-86
2023/01/23 01:36:21;;;;;;;15.03;10.90;;;0.70;99.90;;;;;;5036491;28;20208;-86
2023/01/23 01:38:47;;;;;;;15.00;10.80;;;0.70;99.90;;;;;;5036838;28;20200;-87
2023/01/23 01:41:15;;;;;;;16.20;10.70;;;0.70;99.90;;;;;;5037202;28;20220;-87
2023/01/23 01:43:41;;;;;;;17.87;11.70;;;0.70;99.90;;;;;;5037008;28;20275;-87
2023/01/23 01:46:18;;;;;;;17.47;11.20;;;0.70;99.90;;;;;;5036728;28;20178;-88
2023/01/23 01:49:06;;;;;;;14.97;11.13;;;0.70;99.90;;;;;;5036339;28;20177;-87
2023/01/23 01:51:41;;;;;;;16.50;11.13;;;0.70;99.90;;;;;;5036399;28;20181;-87
2023/01/23 01:54:10;;;;;;;16.93;11.57;;;0.70;99.90;;;;;;5036868;28;20181;-87
2023/01/23 01:57:05;;;;;;;13.97;9.90;;;0.70;99.90;;;;;;5036592;28;20205;-87
2023/01/23 01:59:46;;;;;;;15.10;11.03;;;0.70;99.90;;;;;;5036859;28;20287;-87
2023/01/23 02:02:16;;;;;;;16.00;11.13;;;0.70;99.90;;;;;;5036587;28;20183;-87
2023/01/23 02:04:48;;;;;;;16.67;11.50;;;0.70;99.90;;;;;;5036311;28;20197;-87
2023/01/23 02:07:21;;;;;;;14.73;10.83;;;0.60;99.90;;;;;;5020282;28;20205;-87
2023/01/23 02:09:48;;;;;;;16.30;10.87;;;0.60;99.90;;;;;;5036484;28;20185;-87
2023/01/23 02:12:14;;;;;;;18.47;12.27;;;0.60;99.90;;;;;;5036123;28;20233;-87
2023/01/23 02:14:41;;;;;;;17.00;11.27;;;0.60;99.90;;;;;;5035819;28;20170;-87
2023/01/23 02:17:07;;;;;;;17.67;11.60;;;0.60;99.90;;;;;;5036117;28;20196;-87
2023/01/23 02:19:53;;;;;;;17.27;12.57;;;0.60;99.90;;;;;;5052544;28;20185;-86
2023/01/23 02:22:48;;;;;;;19.93;12.50;;;0.60;99.90;;;;;;5052212;28;20209;-86
2023/01/23 02:25:40;;;;;;;19.53;12.67;;;0.60;99.90;;;;;;5051991;28;20235;-87
2023/01/23 02:28:06;;;;;;;16.43;11.07;;;0.60;99.90;;;;;;5032332;28;20205;-87
2023/01/23 02:30:38;;;;;;;16.33;11.20;;;0.60;99.90;;;;;;5010880;28;20169;-87
2023/01/23 02:33:23;;;;;;;18.07;11.63;;;0.60;99.90;;;;;;5031950;28;20183;-87
2023/01/23 02:35:50;;;;;;;16.63;11.53;;;0.60;99.90;;;;;;5035548;28;20187;-87
2023/01/23 02:38:21;;;;;;;17.53;11.63;;;0.60;99.90;;;;;;5027231;28;20186;-87
2023/01/23 02:40:47;;;;;;;19.00;11.83;;;0.60;99.90;;;;;;5035014;28;20230;-86
2023/01/23 02:43:22;;;;;;;17.73;11.83;;;0.60;99.90;;;;;;5035269;28;20173;-87
2023/01/23 02:45:55;;;;;;;17.30;11.90;;;0.60;99.90;;;;;;5034077;28;20210;-87
2023/01/23 02:48:44;;;;;;;17.37;12.70;;;0.60;99.90;;;;;;5034972;28;20184;-87
2023/01/23 02:51:10;;;;;;;17.50;11.93;;;0.60;99.90;;;;;;5035128;28;20173;-87
2023/01/23 02:53:36;;;;;;;18.70;12.43;;;0.60;99.90;;;;;;5035238;28;20172;-87
2023/01/23 02:56:02;;;;;;;18.70;12.80;;;0.60;99.90;;;;;;5035524;28;20192;-86
2023/01/23 03:01:12;;;;;;;17.27;11.57;;;0.60;99.90;;;;;;5051964;28;20176;-86
2023/01/23 03:03:41;;;;;;;19.07;12.70;;;0.60;99.90;;;;;;5035797;28;20191;-86
2023/01/23 03:06:07;;;;;;;17.90;11.87;;;0.60;99.90;;;;;;5052127;28;20213;-86
2023/01/23 03:08:35;;;;;;;17.97;11.77;;;0.60;99.90;;;;;;5052147;28;20176;-87
2023/01/23 03:11:02;;;;;;;18.07;11.37;;;0.50;99.90;;;;;;5035286;28;20248;-86
2023/01/23 03:13:29;;;;;;;24.00;13.20;;;0.50;99.90;;;;;;5035710;28;20176;-86
2023/01/23 03:15:56;;;;;;;18.17;11.33;;;0.50;99.90;;;;;;5051790;28;20177;-86
2023/01/23 03:18:23;;;;;;;19.57;11.80;;;0.50;99.90;;;;;;5034993;28;20195;-87
2023/01/23 03:20:51;;;;;;;18.03;11.97;;;0.50;99.90;;;;;;5034834;28;20187;-86
2023/01/23 03:23:17;;;;;;;17.07;11.80;;;0.50;99.90;;;;;;5035136;28;20253;-86
2023/01/23 03:25:43;;;;;;;20.97;12.93;;;0.50;99.90;;;;;;5034881;28;20200;-85
2023/01/23 03:30:11;;;;;;;17.93;11.70;;;0.50;99.90;;;;;;5034657;28;20288;-87
2023/01/23 03:30:55;;;;;;;18.37;11.47;;;0.50;99.90;;;;;;5052784;28;20538;-86
2023/01/23 03:33:21;;;;;;;18.43;11.93;;;0.50;99.90;;;;;;5035881;28;20173;-86
2023/01/23 03:35:48;;;;;;;19.73;12.20;;;0.40;99.90;;;;;;5035300;28;20191;-86
2023/01/23 03:38:16;;;;;;;16.47;11.33;;;0.50;99.90;;;;;;5034775;28;20202;-88
2023/01/23 03:43:49;;;;;;;19.30;12.50;;;0.50;99.90;;;;;;5036350;23;20225;-32
2023/01/23 03:46:15;;;;;;;17.70;11.33;;;0.50;99.90;;;;;;5027990;28;20262;-32
2023/01/23 03:48:41;;;;;;;16.87;12.23;;;0.50;99.90;;;;;;5049202;28;20176;-41
2023/01/23 03:51:06;;;;;;;17.17;11.47;;;0.50;99.90;;;;;;5031560;28;20204;-42
2023/01/23 03:53:33;;;;;;;16.63;11.10;;;0.50;99.90;;;;;;5027108;28;20224;-38
2023/01/23 03:56:00;;;;;;;16.97;11.13;;;0.50;99.90;;;;;;5022831;28;20241;-41
2023/01/23 03:58:26;;;;;;;17.97;11.73;;;0.50;99.90;;;;;;5017513;28;20236;-41
2023/01/23 04:00:52;;;;;;;18.27;12.13;;;0.50;99.90;;;;;;5036441;28;20177;-42
2023/01/23 04:03:19;;;;;;;17.37;12.23;;;0.40;99.90;;;;;;5036094;28;20180;-39
2023/01/23 04:05:45;;;;;;;19.00;12.30;;;0.40;99.90;;;;;;5035525;28;20292;-42
2023/01/23 04:08:11;;;;;;;17.63;12.37;;;0.50;99.90;;;;;;5034843;28;20276;-41
2023/01/23 04:10:37;;;;;;;17.87;12.17;;;0.40;99.90;;;;;;5033079;28;20184;-41
2023/01/23 04:13:09;;;;;;;18.00;12.03;;;0.40;99.90;;;;;;5025431;28;20184;-41
2023/01/23 04:15:35;;;;;;;17.60;12.30;;;0.50;99.90;;;;;;5052753;28;20233;-41
2023/01/23 04:18:04;;;;;;;18.13;12.53;;;0.50;99.90;;;;;;5035924;28;20196;-41
2023/01/23 04:20:30;;;;;;;19.93;13.07;;;0.50;99.90;;;;;;5035532;28;20181;-40
2023/01/23 04:22:57;;;;;;;18.73;12.63;;;0.50;99.90;;;;;;5035906;28;20211;-41
2023/01/23 04:25:23;;;;;;;19.37;13.20;;;0.50;99.90;;;;;;5036053;28;20208;-40
2023/01/23 04:27:48;;;;;;;19.77;12.67;;;0.50;99.90;;;;;;5035803;28;20193;-41
2023/01/23 04:30:14;;;;;;;20.03;12.43;;;0.50;99.90;;;;;;5051522;28;20260;-39
2023/01/23 04:32:40;;;;;;;19.10;12.27;;;0.50;99.90;;;;;;5036148;28;20255;-41
2023/01/23 04:35:07;;;;;;;19.07;12.17;;;0.50;99.90;;;;;;5035540;28;20201;-41
2023/01/23 04:37:36;;;;;;;18.03;12.03;;;0.50;99.90;;;;;;5037287;28;20187;-41
2023/01/23 04:40:02;;;;;;;19.50;12.63;;;0.50;99.90;;;;;;5034895;28;20173;-41
2023/01/23 04:42:36;;;;;;;20.53;12.67;;;0.50;99.90;;;;;;5034657;28;20200;-42
2023/01/23 04:45:08;;;;;;;19.73;12.83;;;0.50;99.90;;;;;;5035255;28;20235;-39
2023/01/23 04:47:53;;;;;;;18.43;12.30;;;0.50;99.90;;;;;;5052256;28;20203;-41
2023/01/23 04:50:19;;;;;;;17.97;12.30;;;0.50;99.90;;;;;;5051873;28;20271;-40
2023/01/23 04:52:45;;;;;;;18.10;12.50;;;0.50;99.90;;;;;;5049562;28;20213;-39
2023/01/23 04:55:12;;;;;;;19.27;12.60;;;0.50;99.90;;;;;;5046512;28;20201;-41
2023/01/23 04:57:39;;;;;;;19.30;11.97;;;0.50;99.90;;;;;;5029703;28;20290;-42
2023/01/23 05:00:19;;;;;;;21.00;13.07;;;0.50;99.90;;;;;;5033893;28;20189;-41
2023/01/23 05:02:46;;;;;;;19.97;12.80;;;0.50;99.90;;;;;;5049067;28;20208;-41
2023/01/23 05:05:12;;;;;;;19.70;12.67;;;0.60;99.90;;;;;;5039710;28;20218;-41
2023/01/23 05:07:38;;;;;;;20.30;12.70;;;0.60;99.90;;;;;;5025689;28;20185;-41
2023/01/23 05:10:09;;;;;;;18.57;11.97;;;0.60;99.90;;;;;;5011266;28;20174;-41
2023/01/23 05:12:35;;;;;;;19.97;13.10;;;0.60;99.90;;;;;;5040959;28;20186;-42
2023/01/23 05:15:02;;;;;;;19.67;13.00;;;0.60;99.90;;;;;;5041510;28;20258;-40
2023/01/23 05:17:29;;;;;;;19.77;13.43;;;0.50;99.90;;;;;;5009556;28;20181;-41
2023/01/23 05:19:55;;;;;;;20.67;12.30;;;0.50;99.90;;;;;;5026181;28;20212;-41
2023/01/23 05:22:21;;;;;;;18.97;12.57;;;0.50;99.90;;;;;;5024711;28;20181;-40
2023/01/23 05:24:47;;;;;;;20.73;13.67;;;0.50;99.90;;;;;;5026905;28;20224;-41
2023/01/23 05:27:16;;;;;;;20.83;13.80;;;0.50;99.90;;;;;;5034093;28;20199;-39
2023/01/23 05:29:43;;;;;;;19.90;13.13;;;0.50;99.90;;;;;;5046092;28;20173;-41
2023/01/23 05:32:14;;;;;;;21.60;13.87;;;0.50;99.90;;;;;;5051878;28;20185;-40
2023/01/23 05:34:43;;;;;;;22.53;14.43;;;0.50;99.90;;;;;;5025465;28;20197;-41
2023/01/23 05:37:24;;;;;;;21.10;13.17;;;0.50;99.90;;;;;;5043622;28;20274;-41
2023/01/23 05:39:51;;;;;;;20.33;13.47;;;0.50;99.90;;;;;;5033034;28;20199;-40
2023/01/23 05:42:18;;;;;;;20.03;13.67;;;0.50;99.90;;;;;;5043490;28;20259;-41
2023/01/23 05:45:03;;;;;;;21.27;13.67;;;0.50;99.90;;;;;;5042487;28;20304;-41
2023/01/23 05:47:36;;;;;;;23.00;13.50;;;0.40;99.90;;;;;;5010264;28;20177;-40
2023/01/23 05:50:06;;;;;;;20.50;13.40;;;0.40;99.90;;;;;;5028800;28;20178;-40
2023/01/23 05:52:35;;;;;;;21.27;13.53;;;0.40;99.90;;;;;;5050129;28;20332;-41
2023/01/23 05:55:01;;;;;;;22.37;13.63;;;0.30;99.90;;;;;;5035642;28;20205;-40
2023/01/23 05:57:27;;;;;;;23.77;15.07;;;0.40;99.90;;;;;;5029093;28;20174;-39
2023/01/23 06:00:15;;;;;;;20.07;13.20;;;0.30;99.90;;;;;;5051722;28;20227;-40
2023/01/23 06:02:41;;;;;;;20.67;12.93;;;0.40;99.90;;;;;;5051363;28;20190;-42
2023/01/23 06:05:07;;;;;;;22.47;12.80;;;0.40;99.90;;;;;;5051810;28;20221;-40
2023/01/23 06:07:53;;;;;;;22.47;13.60;;;0.40;99.90;;;;;;5050509;28;20184;-41
2023/01/23 06:10:19;;;;;;;22.50;13.87;;;0.40;99.90;;;;;;5021716;28;20741;-41
2023/01/23 06:12:45;;;;;;;21.87;13.50;;;0.50;99.90;;;;;;5033282;28;20192;-41
2023/01/23 06:15:10;;;;;;;21.67;13.43;;;0.50;99.90;;;;;;5051238;28;20192;-42
2023/01/23 06:17:37;;;;;;;20.27;12.80;;;0.40;99.90;;;;;;5034151;28;20183;-41
2023/01/23 06:20:04;;;;;;;21.97;13.53;;;0.40;99.90;;;;;;5031652;28;20198;-38
2023/01/23 06:22:32;;;;;;;22.17;13.00;;;0.40;99.90;;;;;;5031946;28;20272;-41
2023/01/23 06:25:06;;;;;;;20.90;13.33;;;0.40;99.90;;;;;;5023839;28;20217;-40
2023/01/23 06:27:32;;;;;;;19.30;13.13;;;0.40;99.90;;;;;;5033208;28;20267;-42
2023/01/23 06:30:02;;;;;;;21.30;12.80;;;0.40;99.90;;;;;;5041229;28;20284;-41
2023/01/23 06:32:29;;;;;;;21.60;12.90;;;0.40;99.90;;;;;;5016726;28;20176;-42
2023/01/23 06:34:56;;;;;;;20.83;13.17;;;0.50;99.90;;;;;;5024380;28;20239;-41
2023/01/23 06:37:22;;;;;;;20.50;13.37;;;0.50;99.90;;;;;;5044039;28;20184;-42
2023/01/23 06:39:48;;;;;;;20.10;12.90;;;0.50;99.90;;;;;;5029440;28;20193;-41
2023/01/23 06:42:17;;;;;;;19.80;12.80;;;0.50;99.90;;;;;;5030669;28;20193;-41
2023/01/23 06:44:51;;;;;;;23.27;13.30;;;0.50;99.90;;;;;;5049001;28;20218;-41
2023/01/23 06:47:19;;;;;;;19.70;12.50;;;0.50;99.90;;;;;;5032512;28;20257;-41
2023/01/23 06:49:53;;;;;;;20.03;12.63;;;0.50;99.90;;;;;;5047803;28;20184;-41
2023/01/23 06:52:19;;;;;;;21.43;13.03;;;0.50;99.90;;;;;;5031774;28;20645;-42
2023/01/23 06:54:46;;;;;;;20.10;13.13;;;0.50;99.90;;;;;;5050169;28;20212;-41
2023/01/23 06:57:12;;;;;;;19.67;11.80;;;0.50;99.90;;;;;;5017065;28;20184;-41
2023/01/23 06:59:39;;;;;;;19.37;12.27;;;0.60;99.90;;;;;;5033437;28;20192;-42
2023/01/23 07:02:10;;;;;;;22.37;12.90;;;0.60;99.90;;;;;;5050120;28;20185;-41
2023/01/23 07:04:48;;;;;;;22.83;13.03;;;0.60;99.90;;;;;;5048932;28;21547;-42
2023/01/23 07:07:14;;;;;;;20.97;13.43;;;0.60;99.90;;;;;;5049573;28;20566;-41
2023/01/23 07:09:41;;;;;;;22.23;13.10;;;0.60;99.90;;;;;;5022641;28;20185;-41
2023/01/23 07:12:19;;;;;;;22.57;12.97;;;0.60;99.90;;;;;;5030284;28;20177;-41
2023/01/23 07:14:46;;;;;;;20.80;12.80;;;0.60;99.90;;;;;;5023371;28;20283;-41
2023/01/23 07:17:16;;;;;;;21.03;12.07;;;0.70;99.90;;;;;;5015884;28;20230;-41
2023/01/23 07:19:42;;;;;;;20.90;12.30;;;0.70;99.90;;;;;;5004850;28;20189;-41
2023/01/23 07:22:11;;;;;;;22.33;13.10;;;0.60;99.90;;;;;;5029457;28;20194;-41
2023/01/23 07:24:37;;;;;;;19.43;11.97;;;0.60;99.90;;;;;;5041840;28;20263;-41
2023/01/23 07:27:09;;;;;;;20.90;12.83;;;0.60;99.90;;;;;;5051455;28;20216;-42
2023/01/23 07:29:36;;;;;;;18.57;11.60;;;0.70;99.90;;;;;;5033900;28;20227;-42
2023/01/23 07:32:02;;;;;;;20.33;12.00;;;0.70;99.90;;;;;;5054635;28;20226;-41
2023/01/23 07:34:28;;;;;;;21.93;13.33;;;0.70;99.90;;;;;;5057539;28;20251;-42
2023/01/23 07:36:55;;;;;;;21.00;12.70;;;0.70;99.90;;;;;;5025717;28;20187;-42
2023/01/23 07:39:22;;;;;;;23.83;13.20;;;0.70;99.90;;;;;;5054101;28;20229;-41
2023/01/23 07:41:48;;;;;;;20.03;11.50;;;0.70;99.90;;;;;;5049853;28;20185;-42
2023/01/23 07:44:20;;;;;;;22.23;12.77;;;0.70;99.90;;;;;;5046153;28;20213;-41
2023/01/23 07:46:48;;;;;;;18.87;11.60;;;0.70;99.90;;;;;;5057908;28;20197;-41
2023/01/23 07:49:17;;;;;;;20.23;11.53;;;0.70;99.90;;;;;;5055839;28;20185;-41
2023/01/23 07:51:44;;;;;;;18.00;11.43;;;0.70;99.90;;;;;;5054922;28;20200;-42
2023/01/23 07:54:10;;;;;;;19.07;11.43;;;0.70;99.90;;;;;;5055970;28;20182;-42
2023/01/23 07:56:38;;;;;;;19.67;11.20;;;0.70;99.90;;;;;;5056893;28;20226;-41
2023/01/23 07:59:04;;;;;;;17.87;11.20;;;0.70;99.90;;;;;;5056533;28;20187;-41
2023/01/23 08:01:29;;;;;;;17.50;10.60;;;0.70;99.90;;;;;;5058426;28;20177;-42
2023/01/23 08:03:56;;;;;;;16.87;11.17;;;0.70;99.90;;;;;;5048917;28;20314;-42
2023/01/23 08:06:22;;;;;;;19.63;11.00;;;0.70;99.90;;;;;;5038803;28;20227;-41
2023/01/23 08:08:48;;;;;;;17.17;10.87;;;0.70;99.90;;;;;;5047686;28;20176;-41
2023/01/23 08:11:14;;;;;;;18.07;10.87;;;0.80;99.90;;;;;;5057026;28;20181;-41
2023/01/23 08:13:40;;;;;;;16.53;10.53;;;0.80;99.90;;;;;;5054959;28;20207;-41
2023/01/23 08:16:06;;;;;;;17.30;10.67;;;0.80;99.90;;;;;;5039485;28;20200;-42
2023/01/23 08:18:33;;;;;;;15.30;10.03;;;0.80;99.90;;;;;;5038994;28;20234;-41
2023/01/23 08:21:01;;;;;;;16.27;9.63;;;0.80;99.90;;;;;;5055967;28;20220;-42
2023/01/23 08:23:32;;;;;;;17.87;10.20;;;0.80;99.90;;;;;;5057373;28;20181;-41
2023/01/23 08:26:00;;;;;;;15.10;9.53;;;0.80;99.90;;;;;;5056009;28;20256;-39
2023/01/23 08:28:26;;;;;;;16.10;9.67;;;0.80;99.90;;;;;;5055401;28;20192;-40
2023/01/23 08:30:53;;;;;;;17.03;9.67;;;0.80;99.90;;;;;;5039324;28;20226;-42
2023/01/23 08:33:20;;;;;;;17.43;10.63;;;0.80;99.90;;;;;;5056661;28;20551;-42
2023/01/23 08:35:55;;;;;;;17.20;9.87;;;0.90;99.90;;;;;;5056987;28;20287;-42
2023/01/23 08:38:21;;;;;;;16.57;9.70;;;0.90;99.90;;;;;;5038182;28;20184;-41
2023/01/23 08:40:49;;;;;;;16.60;9.53;;;0.90;99.90;;;;;;5052247;28;20185;-41
2023/01/23 08:43:16;;;;;;;14.57;9.40;;;0.90;99.90;;;;;;5037840;28;20202;-41
2023/01/23 08:45:48;;;;;;;16.47;10.67;;;0.90;99.90;;;;;;5030122;28;20579;-42
2023/01/23 08:48:14;;;;;;;19.73;10.97;;;0.90;99.90;;;;;;5015231;28;20212;-41
2023/01/23 08:50:41;;;;;;;18.20;11.10;;;0.90;99.90;;;;;;5027026;28;20269;-40
2023/01/23 08:53:07;;;;;;;18.53;10.87;;;0.90;99.90;;;;;;5039375;28;20189;-41
2023/01/23 08:55:34;;;;;;;17.90;10.93;;;1.00;99.90;;;;;;5026388;28;20205;-41
2023/01/23 08:58:01;;;;;;;20.67;11.93;;;1.10;99.90;;;;;;5034828;28;20184;-39
2023/01/23 09:00:29;;;;;;;19.83;12.07;;;1.10;99.90;;;;;;5017808;28;20192;-40
2023/01/23 09:03:02;;;;;;;18.73;11.33;;;1.20;99.90;;;;;;5033935;28;20311;-42
2023/01/23 09:05:29;;;;;;;23.23;13.13;;;1.20;99.90;;;;;;5041245;28;20224;-41
2023/01/23 09:07:56;;;;;;;18.63;11.53;;;1.30;99.90;;;;;;5031658;28;20201;-42
2023/01/23 09:10:23;;;;;;;17.50;11.23;;;1.40;99.90;;;;;;5021888;28;20254;-42
2023/01/23 09:12:53;;;;;;;18.50;11.40;;;1.40;99.90;;;;;;5041343;28;20170;-42
2023/01/23 09:15:21;;;;;;;18.93;11.90;;;1.40;99.90;;;;;;5032290;28;20212;-42
2023/01/23 09:17:47;;;;;;;21.53;12.33;;;1.40;99.90;;;;;;5042197;28;20227;-42
2023/01/23 09:20:14;;;;;;;21.13;12.23;;;1.60;99.90;;;;;;5026673;28;20200;-40
2023/01/23 09:22:40;;;;;;;18.53;11.40;;;1.60;99.90;;;;;;5007405;28;20178;-42
2023/01/23 09:25:07;;;;;;;17.17;10.53;;;1.60;99.90;;;;;;5019205;28;20221;-42
2023/01/23 09:27:33;;;;;;;19.73;11.67;;;1.60;99.90;;;;;;5033755;28;20179;-42
2023/01/23 09:29:58;;;;;;;18.57;11.10;;;1.70;99.90;;;;;;5039865;28;20174;-41
2023/01/23 09:32:24;;;;;;;16.83;10.47;;;1.60;99.90;;;;;;5044531;28;20288;-41
2023/01/23 09:34:50;;;;;;;21.77;12.27;;;1.70;99.90;;;;;;5042169;28;20198;-41
2023/01/23 09:37:16;;;;;;;18.87;11.27;;;1.70;99.90;;;;;;5031150;28;20207;-41
2023/01/23 09:39:44;;;;;;;19.37;11.20;;;1.70;99.90;;;;;;5024222;28;20190;-41
2023/01/23 09:42:20;;;;;;;20.37;12.00;;;1.70;99.90;;;;;;5032478;28;20264;-42
2023/01/23 09:44:55;;;;;;;19.20;10.80;;;1.70;99.90;;;;;;5030795;28;20217;-42
2023/01/23 09:47:37;;;;;;;18.33;11.23;;;1.60;99.90;;;;;;5032625;28;20181;-41
2023/01/23 09:50:12;;;;;;;19.27;11.60;;;1.60;99.90;;;;;;5014222;28;20199;-41
2023/01/23 09:52:44;;;;;;;18.73;11.37;;;1.60;99.90;;;;;;5031557;28;20174;-42
2023/01/23 09:55:17;;;;;;;17.43;11.10;;;1.50;99.90;;;;;;5031996;28;20210;-40
2023/01/23 10:00:23;;;;;;;18.33;11.63;;;1.60;99.90;;;;;;5010992;28;20262;-36
2023/01/23 10:02:50;;;;;;;17.10;10.73;;;1.50;99.90;;;;;;4994875;28;20700;-36
2023/01/23 10:05:19;;;;;;;18.73;11.60;;;1.60;99.90;;;;;;5012933;28;20242;-36
2023/01/23 10:08:14;;;;;;;19.77;11.23;;;1.60;99.90;;;;;;4980030;28;20209;-36
2023/01/23 10:10:51;;;;;;;17.13;10.67;;;1.70;99.90;;;;;;4992746;28;20191;-36
2023/01/23 10:13:19;;;;;;;16.20;10.00;;;1.60;99.90;;;;;;4975494;28;20271;-36
2023/01/23 10:16:17;;;;;;;16.10;10.00;;;1.60;99.90;;;;;;4975785;28;20596;-36
2023/01/23 10:19:22;;;;;;;16.43;10.63;;;1.60;99.90;;;;;;4993176;28;20208;-36
2023/01/23 10:21:58;;;;;;;16.23;10.80;;;1.70;99.90;;;;;;4975636;28;20195;-36
2023/01/23 10:24:48;;;;;;;17.43;11.23;;;1.80;99.90;;;;;;4992876;28;20207;-36
2023/01/23 10:27:21;;;;;;;15.03;9.63;;;1.90;99.90;;;;;;4991552;28;20278;-36
2023/01/23 10:30:00;;;;;;;16.23;9.90;;;2.00;99.90;;;;;;4993025;28;20175;-35
2023/01/23 10:32:29;;;;;;;16.33;10.37;;;2.10;99.90;;;;;;4991561;28;20711;-36
2023/01/23 10:35:16;;;;;;;16.90;10.33;;;2.10;99.90;;;;;;4992564;28;20267;-36
2023/01/23 10:38:00;;;;;;;15.07;9.20;;;2.10;99.90;;;;;;4975023;28;20199;-36
2023/01/23 10:43:13;;;;;;;14.77;9.10;;;2.00;99.90;;;;;;4973418;28;20180;-36
2023/01/23 10:45:41;;;;;;;13.53;8.93;;;1.90;99.90;;;;;;4971819;28;20259;-36
2023/01/23 10:48:32;;;;;;;14.00;9.13;;;1.80;99.90;;;;;;4955659;28;20205;-36
2023/01/23 10:50:58;;;;;;;13.30;8.77;;;1.90;99.90;;;;;;4973269;28;20184;-36
2023/01/23 10:53:25;;;;;;;14.50;9.20;;;1.90;99.90;;;;;;4955853;28;20177;-37
2023/01/23 10:55:58;;;;;;;13.33;9.00;;;1.90;99.90;;;;;;4956486;28;20188;-37
2023/01/23 10:58:39;;;;;;;15.47;9.13;;;1.90;99.90;;;;;;4974200;28;20215;-37
2023/01/23 11:01:20;;;;;;;11.93;8.47;;;2.00;99.90;;;;;;4975123;28;20218;-37
2023/01/23 11:04:20;;;;;;;12.57;8.57;;;2.00;99.90;;;;;;4998323;28;20676;-36
2023/01/23 11:07:06;;;;;;;13.83;8.57;;;1.90;99.90;;;;;;4967109;28;20255;-38
2023/01/23 11:09:59;;;;;;;14.70;8.73;;;1.90;99.90;;;;;;4993226;28;20180;-36
2023/01/23 11:12:34;;;;;;;13.40;8.63;;;2.00;99.90;;;;;;4925172;28;20255;-37
2023/01/23 11:15:16;;;;;;;14.23;8.87;;;2.00;99.90;;;;;;4985930;28;20180;-35
2023/01/23 11:17:47;;;;;;;14.00;8.70;;;1.90;99.90;;;;;;4953932;28;20222;-39
2023/01/23 11:20:54;;;;;;;13.33;9.00;;;1.90;99.90;;;;;;4991152;28;20168;-37
2023/01/23 11:23:32;;;;;;;12.10;8.47;;;2.00;99.90;;;;;;4974245;28;20180;-42
2023/01/23 11:26:03;;;;;;;13.87;8.57;;;1.90;99.90;;;;;;4965063;28;20185;-36
2023/01/23 11:28:52;;;;;;;15.37;9.13;;;1.80;99.90;;;;;;5001221;28;20211;-33
2023/01/23 11:31:25;;;;;;;13.73;9.20;;;1.90;99.90;;;;;;4990463;28;20191;-39
2023/01/23 11:34:12;;;;;;;13.00;8.47;;;1.90;99.90;;;;;;4992296;28;20180;-37
2023/01/23 11:37:15;;;;;;;14.73;8.90;;;1.80;99.90;;;;;;4974563;28;20215;-37
2023/01/23 11:39:57;;;;;;;13.77;8.97;;;1.90;99.90;;;;;;4939798;28;20643;-43
2023/01/23 11:42:27;;;;;;;12.70;8.73;;;1.90;99.90;;;;;;4974478;28;20184;-40
2023/01/23 11:44:53;;;;;;;14.93;9.03;;;1.90;99.90;;;;;;4974422;28;20211;-37
2023/01/23 11:47:28;;;;;;;16.47;9.60;;;1.90;99.90;;;;;;4974206;28;20193;-38
2023/01/23 11:50:31;;;;;;;12.20;8.57;;;1.90;99.90;;;;;;4984130;28;20192;-37
2023/01/23 11:53:15;;;;;;;15.87;9.37;;;1.90;99.90;;;;;;4983721;28;20185;-38
2023/01/23 11:56:07;;;;;;;14.40;8.87;;;1.90;99.90;;;;;;4979510;28;20223;-37
2023/01/23 11:58:54;;;;;;;16.07;10.07;;;1.90;99.90;;;;;;4983896;28;20215;-37
2023/01/23 12:01:49;;;;;;;14.97;9.27;;;1.80;99.90;;;;;;4990197;28;20188;-38
2023/01/23 12:04:45;;;;;;;13.93;9.07;;;1.80;99.90;;;;;;4946997;28;20205;-37
2023/01/23 12:07:20;;;;;;;17.23;10.43;;;1.80;99.90;;;;;;4989503;28;20200;-37
2023/01/23 12:10:02;;;;;;;14.20;10.10;;;1.80;99.90;;;;;;4991294;28;20233;-36
2023/01/23 12:12:58;;;;;;;16.13;10.20;;;1.80;99.90;;;;;;4958007;28;20562;-36
2023/01/23 12:15:36;;;;;;;14.90;9.27;;;1.90;99.90;;;;;;4973135;28;20262;-37
2023/01/23 12:18:26;;;;;;;14.53;9.33;;;1.80;99.90;;;;;;4983966;28;20208;-37
2023/01/23 12:21:05;;;;;;;17.07;9.17;;;1.90;99.90;;;;;;4995067;28;20176;-37
2023/01/23 12:23:39;;;;;;;16.60;10.27;;;1.90;99.90;;;;;;4995095;28;20184;-37
2023/01/23 12:26:12;;;;;;;16.53;10.33;;;1.90;99.90;;;;;;4994575;28;20283;-37
2023/01/23 12:28:57;;;;;;;14.37;9.30;;;1.80;99.90;;;;;;4973601;28;20211;-37
2023/01/23 12:31:40;;;;;;;14.07;9.27;;;1.90;99.90;;;;;;4958729;28;20183;-37
2023/01/23 12:34:44;;;;;;;14.83;9.67;;;1.90;99.90;;;;;;4965759;28;20183;-35
2023/01/23 12:37:39;;;;;;;15.97;9.67;;;1.90;99.90;;;;;;4994598;28;20207;-37
2023/01/23 12:40:12;;;;;;;15.47;9.60;;;1.90;99.90;;;;;;4952615;28;20247;-37
2023/01/23 12:43:29;;;;;;;20.00;10.10;;;1.90;99.90;;;;;;4957900;28;20281;-36
2023/01/23 12:46:07;;;;;;;15.00;9.90;;;2.10;99.90;;;;;;4932376;28;20238;-37
2023/01/23 12:49:14;;;;;;;14.83;9.37;;;2.10;99.90;;;;;;4957692;28;20207;-36
2023/01/23 12:51:44;;;;;;;18.63;10.87;;;2.20;99.90;;;;;;4947809;28;20188;-37
2023/01/23 12:54:16;;;;;;;18.13;10.57;;;2.30;99.90;;;;;;4941871;28;20180;-36
2023/01/23 12:56:45;;;;;;;17.00;9.73;;;2.30;99.90;;;;;;4957771;28;20223;-37
2023/01/23 12:59:34;;;;;;;15.27;9.23;;;2.40;99.90;;;;;;4973265;28;20661;-36
2023/01/23 13:02:04;;;;;;;15.80;9.80;;;2.40;99.90;;;;;;4960838;28;20188;-37
2023/01/23 13:04:45;;;;;;;14.17;9.17;;;2.50;99.90;;;;;;4976640;28;20311;-35
2023/01/23 13:07:52;;;;;;;17.30;9.90;;;2.40;99.90;;;;;;4994063;28;20230;-35
2023/01/23 13:13:26;;;;;;;14.67;9.63;;;2.60;99.90;;;;;;4974977;28;20207;-34
2023/01/23 13:16:14;;;;;;;18.87;11.17;;;2.50;99.90;;;;;;4968773;28;20199;-36